Time;durP1;ratioP1;P1;durP2;ratioP2;P2;SDS_P1;SDS_P2;PMS_P1;PMS_P2;Temp;Humidity;BMP_temperature;BMP_pressure;BME280_temperature;BME280_humidity;BME280_pressure;Samples;Min_cycle;Max_cycle;Signal;HPM_P1;HPM_P2
2022/11/22 00:00:49;;;;;;;123.20;46.83;;;;;;;;;;5029694;28;20442;-72
2022/11/22 00:03:16;;;;;;;123.03;45.27;;;;;;;;;;5011907;28;20453;-71
2022/11/22 00:05:43;;;;;;;104.70;43.53;;;;;;;;;;5013280;28;20451;-71
2022/11/22 00:08:10;;;;;;;119.30;45.67;;;;;;;;;;5029138;28;20454;-71
2022/11/22 00:10:36;;;;;;;116.97;44.93;;;;;;;;;;5030324;28;20496;-71
2022/11/22 00:13:03;;;;;;;115.97;43.77;;;;;;;;;;5030132;28;20458;-71
2022/11/22 00:15:30;;;;;;;103.03;41.93;;;;;;;;;;5031180;28;20913;-71
2022/11/22 00:17:57;;;;;;;116.93;44.63;;;;;;;;;;5029582;28;20450;-71
2022/11/22 00:20:23;;;;;;;119.00;43.47;;;;;;;;;;5030317;28;20453;-71
2022/11/22 00:22:50;;;;;;;120.97;46.73;;;;;;;;;;5028799;28;20450;-72
2022/11/22 00:25:17;;;;;;;129.03;47.43;;;;;;;;;;5013694;28;20565;-71
2022/11/22 00:27:43;;;;;;;117.17;46.10;;;;;;;;;;5031090;28;20434;-71
2022/11/22 00:30:10;;;;;;;132.63;47.70;;;;;;;;;;4995753;28;20479;-72
2022/11/22 00:32:36;;;;;;;136.30;47.30;;;;;;;;;;5025272;28;20458;-72
2022/11/22 00:35:03;;;;;;;127.87;45.33;;;;;;;;;;5029612;28;21243;-71
2022/11/22 00:37:30;;;;;;;142.73;47.87;;;;;;;;;;5028580;28;20788;-72
2022/11/22 00:39:56;;;;;;;135.73;45.57;;;;;;;;;;5027488;28;20446;-71
2022/11/22 00:42:23;;;;;;;143.93;46.63;;;;;;;;;;5029649;28;20567;-71
2022/11/22 00:44:50;;;;;;;135.20;45.80;;;;;;;;;;5029653;28;20528;-71
2022/11/22 00:47:16;;;;;;;127.80;43.70;;;;;;;;;;5029882;28;20438;-72
2022/11/22 00:49:43;;;;;;;129.30;42.80;;;;;;;;;;5030464;28;20449;-72
2022/11/22 00:52:27;;;;;;;131.70;43.80;;;;;;;;;;5009869;28;20430;-72
2022/11/22 00:54:53;;;;;;;139.53;43.57;;;;;;;;;;5030165;28;20882;-72
2022/11/22 00:57:20;;;;;;;141.40;45.77;;;;;;;;;;5013447;28;20564;-71
2022/11/22 00:59:47;;;;;;;131.60;42.70;;;;;;;;;;5029747;28;20441;-71
2022/11/22 01:02:14;;;;;;;134.37;44.43;;;;;;;;;;5013101;28;20942;-72
2022/11/22 01:04:40;;;;;;;135.97;43.93;;;;;;;;;;4995281;28;20513;-72
2022/11/22 01:07:07;;;;;;;126.20;40.17;;;;;;;;;;5030374;28;20443;-72
2022/11/22 01:09:34;;;;;;;110.10;39.93;;;;;;;;;;5016193;28;21021;-72
2022/11/22 01:12:18;;;;;;;119.93;38.13;;;;;;;;;;5017077;28;20444;-72
2022/11/22 01:14:45;;;;;;;129.33;39.13;;;;;;;;;;5029686;28;20446;-72
2022/11/22 01:17:12;;;;;;;108.00;36.80;;;;;;;;;;5012768;28;20786;-72
2022/11/22 01:19:38;;;;;;;128.60;40.30;;;;;;;;;;5012654;28;20462;-71
2022/11/22 01:22:05;;;;;;;127.97;41.17;;;;;;;;;;5030425;28;21321;-72
2022/11/22 01:24:32;;;;;;;125.10;40.47;;;;;;;;;;5028924;28;20473;-72
2022/11/22 01:26:58;;;;;;;130.60;42.07;;;;;;;;;;5012606;28;20533;-72
2022/11/22 01:29:25;;;;;;;127.27;40.53;;;;;;;;;;5029988;28;20462;-72
2022/11/22 01:31:52;;;;;;;129.47;42.27;;;;;;;;;;5012184;28;20449;-72
2022/11/22 01:34:18;;;;;;;115.33;40.97;;;;;;;;;;5012353;28;20466;-71
2022/11/22 01:36:45;;;;;;;115.67;39.50;;;;;;;;;;5012075;28;20605;-72
2022/11/22 01:39:11;;;;;;;122.03;39.47;;;;;;;;;;5008747;28;20459;-72
2022/11/22 01:41:38;;;;;;;108.77;37.83;;;;;;;;;;4992625;28;20435;-72
2022/11/22 01:44:17;;;;;;;111.87;39.70;;;;;;;;;;5027727;28;21105;-72
2022/11/22 01:46:43;;;;;;;110.40;38.63;;;;;;;;;;5029775;28;20429;-72
2022/11/22 01:49:11;;;;;;;111.03;39.00;;;;;;;;;;5012465;28;20430;-72
2022/11/22 01:51:39;;;;;;;108.10;36.37;;;;;;;;;;4995718;28;20496;-72
2022/11/22 01:54:10;;;;;;;110.00;37.53;;;;;;;;;;5028444;28;20526;-72
2022/11/22 01:56:37;;;;;;;104.07;37.57;;;;;;;;;;5010020;28;20877;-72
2022/11/22 01:59:05;;;;;;;109.60;38.57;;;;;;;;;;5006511;28;20544;-72
2022/11/22 02:01:35;;;;;;;109.27;37.50;;;;;;;;;;5023563;28;20486;-72
2022/11/22 02:04:02;;;;;;;104.77;38.33;;;;;;;;;;5028412;28;20557;-72
2022/11/22 02:06:34;;;;;;;116.33;37.53;;;;;;;;;;5028061;28;20426;-72
2022/11/22 02:09:11;;;;;;;112.90;37.97;;;;;;;;;;5009811;28;20471;-72
2022/11/22 02:11:40;;;;;;;112.00;38.40;;;;;;;;;;4993952;28;20454;-71
2022/11/22 02:14:24;;;;;;;97.50;35.83;;;;;;;;;;5026345;28;20487;-71
2022/11/22 02:16:53;;;;;;;101.10;35.97;;;;;;;;;;5002468;28;20434;-71
2022/11/22 02:19:32;;;;;;;93.83;35.67;;;;;;;;;;5015874;28;20939;-71
2022/11/22 02:22:00;;;;;;;94.70;34.37;;;;;;;;;;5027375;28;21002;-71
2022/11/22 02:24:45;;;;;;;99.67;36.03;;;;;;;;;;5006687;28;20487;-71
2022/11/22 02:27:12;;;;;;;101.30;35.80;;;;;;;;;;5017792;28;20473;-71
2022/11/22 02:29:39;;;;;;;96.53;35.80;;;;;;;;;;5010627;28;20454;-71
2022/11/22 02:32:05;;;;;;;98.77;35.70;;;;;;;;;;5025130;28;20540;-71
2022/11/22 02:34:40;;;;;;;95.83;35.83;;;;;;;;;;5009107;28;20458;-71
2022/11/22 02:37:07;;;;;;;91.17;35.60;;;;;;;;;;4994339;28;20451;-71
2022/11/22 02:39:34;;;;;;;89.37;35.80;;;;;;;;;;5027689;28;20485;-71
2022/11/22 02:42:00;;;;;;;97.40;36.13;;;;;;;;;;5026005;28;20445;-71
2022/11/22 02:44:27;;;;;;;101.77;36.77;;;;;;;;;;5011003;28;20553;-71
2022/11/22 02:46:53;;;;;;;94.83;36.17;;;;;;;;;;5029114;28;20434;-71
2022/11/22 02:49:21;;;;;;;101.80;37.03;;;;;;;;;;5028577;28;20446;-71
2022/11/22 02:51:48;;;;;;;101.40;37.73;;;;;;;;;;5028824;28;20960;-71
2022/11/22 02:54:15;;;;;;;94.53;36.30;;;;;;;;;;5008223;28;20869;-71
2022/11/22 02:56:41;;;;;;;106.97;37.20;;;;;;;;;;4990833;28;20482;-71
2022/11/22 02:59:08;;;;;;;99.97;37.60;;;;;;;;;;5008619;28;20475;-71
2022/11/22 03:01:34;;;;;;;101.53;37.97;;;;;;;;;;5016407;28;20450;-71
2022/11/22 03:04:01;;;;;;;95.27;35.17;;;;;;;;;;5010760;28;20633;-71
2022/11/22 03:06:28;;;;;;;98.93;35.87;;;;;;;;;;5027320;28;20434;-71
2022/11/22 03:08:55;;;;;;;93.77;35.20;;;;;;;;;;4995204;28;20847;-71
2022/11/22 03:11:22;;;;;;;96.70;35.03;;;;;;;;;;5028797;28;20466;-71
2022/11/22 03:14:06;;;;;;;90.63;35.33;;;;;;;;;;5008887;28;20418;-71
2022/11/22 03:16:33;;;;;;;93.80;35.77;;;;;;;;;;5008980;28;20501;-71
2022/11/22 03:19:17;;;;;;;100.07;36.23;;;;;;;;;;5024113;28;20509;-71
2022/11/22 03:21:44;;;;;;;99.00;35.47;;;;;;;;;;5027970;28;20545;-71
2022/11/22 03:24:28;;;;;;;104.00;38.03;;;;;;;;;;5030274;28;20461;-71
2022/11/22 03:26:55;;;;;;;90.27;34.37;;;;;;;;;;5031568;28;20468;-70
2022/11/22 03:29:39;;;;;;;102.00;36.50;;;;;;;;;;5031562;28;20445;-71
2022/11/22 03:32:06;;;;;;;89.67;36.73;;;;;;;;;;5032174;28;20892;-71
2022/11/22 03:34:32;;;;;;;99.87;36.47;;;;;;;;;;5030925;28;20472;-71
2022/11/22 03:36:59;;;;;;;92.47;36.13;;;;;;;;;;5030708;28;20485;-71
2022/11/22 03:39:29;;;;;;;92.53;36.77;;;;;;;;;;4998926;28;20446;-71
2022/11/22 03:42:13;;;;;;;91.73;36.30;;;;;;;;;;5003093;28;20920;-71
2022/11/22 03:44:47;;;;;;;103.83;38.53;;;;;;;;;;4997196;28;21052;-71
2022/11/22 03:47:14;;;;;;;99.67;37.50;;;;;;;;;;4994850;28;20510;-72
2022/11/22 03:49:41;;;;;;;97.10;35.87;;;;;;;;;;5012013;28;20526;-71
2022/11/22 03:52:07;;;;;;;103.43;37.83;;;;;;;;;;4994705;28;20501;-71
2022/11/22 03:54:34;;;;;;;96.67;35.83;;;;;;;;;;4996548;28;20462;-71
2022/11/22 03:57:01;;;;;;;100.00;37.43;;;;;;;;;;5031101;28;20545;-71
2022/11/22 03:59:27;;;;;;;97.30;34.50;;;;;;;;;;5014013;28;20469;-71
2022/11/22 04:01:54;;;;;;;90.47;35.50;;;;;;;;;;5030471;28;20462;-71
2022/11/22 04:04:22;;;;;;;96.97;36.93;;;;;;;;;;5014231;28;20563;-71
2022/11/22 04:06:48;;;;;;;104.07;37.73;;;;;;;;;;5013834;28;20566;-71
2022/11/22 04:09:15;;;;;;;99.60;37.30;;;;;;;;;;5030228;28;20796;-72
2022/11/22 04:11:41;;;;;;;91.87;36.43;;;;;;;;;;5027776;28;20478;-72
2022/11/22 04:16:55;;;;;;;96.60;36.47;;;;;;;;;;5027542;28;20457;-71
2022/11/22 04:19:22;;;;;;;92.00;35.83;;;;;;;;;;4994747;28;20450;-70
2022/11/22 04:21:49;;;;;;;98.37;37.50;;;;;;;;;;5022964;28;20446;-71
2022/11/22 04:27:01;;;;;;;94.90;35.70;;;;;;;;;;5028891;28;20446;-73
2022/11/22 04:29:47;;;;;;;104.47;37.63;;;;;;;;;;5011423;28;20430;-71
2022/11/22 04:35:19;;;;;;;92.20;35.60;;;;;;;;;;5015222;28;20479;-69
2022/11/22 04:37:50;;;;;;;95.57;36.53;;;;;;;;;;5027701;28;20549;-70
2022/11/22 04:40:16;;;;;;;94.13;36.77;;;;;;;;;;5027159;28;20450;-72
2022/11/22 04:45:28;;;;;;;103.53;37.47;;;;;;;;;;5003876;28;21019;-72
2022/11/22 04:47:58;;;;;;;107.47;38.60;;;;;;;;;;5001208;28;21088;-71
2022/11/22 04:53:28;;;;;;;114.57;38.57;;;;;;;;;;5026724;28;20437;-71
2022/11/22 04:55:55;;;;;;;114.13;40.23;;;;;;;;;;5010327;28;20872;-71
2022/11/22 04:58:22;;;;;;;117.43;40.00;;;;;;;;;;5010459;28;20857;-69
2022/11/22 05:00:48;;;;;;;100.53;38.80;;;;;;;;;;5027597;28;20953;-71
2022/11/22 05:03:15;;;;;;;101.67;36.67;;;;;;;;;;5028087;28;20516;-69
2022/11/22 05:05:42;;;;;;;98.83;37.27;;;;;;;;;;5027132;28;20469;-70
2022/11/22 05:08:09;;;;;;;99.67;36.97;;;;;;;;;;5010231;28;20794;-70
2022/11/22 05:13:22;;;;;;;98.40;37.43;;;;;;;;;;5018116;28;20449;-74
2022/11/22 05:15:50;;;;;;;98.57;37.73;;;;;;;;;;5006104;28;20518;-73
2022/11/22 05:18:17;;;;;;;99.40;37.80;;;;;;;;;;5001871;28;20450;-72
2022/11/22 05:20:44;;;;;;;97.20;38.50;;;;;;;;;;5016912;28;20450;-72
2022/11/22 05:25:56;;;;;;;106.93;38.03;;;;;;;;;;5016649;28;20485;-70
2022/11/22 05:28:23;;;;;;;115.30;40.87;;;;;;;;;;4997605;28;21213;-67
2022/11/22 05:30:51;;;;;;;108.13;41.33;;;;;;;;;;5015539;28;20466;-74
2022/11/22 05:33:17;;;;;;;121.43;43.13;;;;;;;;;;4975964;28;20442;-68
2022/11/22 05:35:44;;;;;;;108.57;40.83;;;;;;;;;;5013326;28;20911;-69
2022/11/22 05:38:10;;;;;;;128.20;43.17;;;;;;;;;;5011035;28;20999;-69
2022/11/22 05:40:38;;;;;;;120.00;42.90;;;;;;;;;;5029326;28;21003;-68
2022/11/22 05:43:04;;;;;;;123.10;42.53;;;;;;;;;;5031085;28;20434;-69
2022/11/22 05:45:32;;;;;;;118.07;42.63;;;;;;;;;;5030032;28;20512;-69
2022/11/22 05:48:16;;;;;;;115.77;41.20;;;;;;;;;;5027186;28;20430;-69
2022/11/22 05:50:42;;;;;;;126.93;41.23;;;;;;;;;;5009837;28;20452;-69
2022/11/22 05:53:27;;;;;;;119.27;41.70;;;;;;;;;;5027389;28;20430;-69
2022/11/22 05:55:53;;;;;;;119.33;42.90;;;;;;;;;;5026696;28;20474;-69
2022/11/22 05:58:37;;;;;;;124.60;41.93;;;;;;;;;;4987068;28;20572;-71
2022/11/22 06:01:09;;;;;;;119.60;42.80;;;;;;;;;;5007411;28;20646;-69
2022/11/22 06:03:36;;;;;;;121.20;43.57;;;;;;;;;;5013741;28;21005;-68
2022/11/22 06:06:03;;;;;;;119.07;44.47;;;;;;;;;;5001682;28;20466;-67
2022/11/22 06:08:31;;;;;;;117.63;43.17;;;;;;;;;;5008882;28;20442;-69
2022/11/22 06:11:07;;;;;;;107.93;41.57;;;;;;;;;;5025956;28;20427;-67
2022/11/22 06:13:35;;;;;;;128.63;44.17;;;;;;;;;;5026618;28;21043;-72
2022/11/22 06:16:02;;;;;;;142.93;46.47;;;;;;;;;;5005823;28;20444;-68
2022/11/22 06:18:29;;;;;;;132.13;45.43;;;;;;;;;;5026118;28;20430;-69
2022/11/22 06:20:57;;;;;;;136.83;44.03;;;;;;;;;;5004523;28;20505;-67
2022/11/22 06:23:23;;;;;;;133.90;44.47;;;;;;;;;;5024110;28;20516;-68
2022/11/22 06:25:59;;;;;;;116.53;41.40;;;;;;;;;;5026254;28;20537;-67
2022/11/22 06:28:27;;;;;;;119.10;43.77;;;;;;;;;;5026697;28;20465;-67
2022/11/22 06:30:54;;;;;;;118.47;41.90;;;;;;;;;;4991390;28;20489;-65
2022/11/22 06:33:20;;;;;;;109.87;40.93;;;;;;;;;;5008166;28;20451;-65
2022/11/22 06:35:47;;;;;;;114.03;42.57;;;;;;;;;;5009247;28;20458;-65
2022/11/22 06:38:14;;;;;;;104.80;40.63;;;;;;;;;;5009445;28;20435;-65
2022/11/22 06:40:40;;;;;;;115.10;42.13;;;;;;;;;;5009595;28;20431;-65
2022/11/22 06:43:07;;;;;;;119.50;42.87;;;;;;;;;;5009264;28;20461;-65
2022/11/22 06:45:34;;;;;;;127.27;47.27;;;;;;;;;;5016705;28;20469;-65
2022/11/22 06:48:00;;;;;;;160.67;52.57;;;;;;;;;;5022600;28;20434;-66
2022/11/22 06:50:27;;;;;;;154.00;54.57;;;;;;;;;;5025679;28;20430;-69
2022/11/22 06:52:54;;;;;;;163.73;53.03;;;;;;;;;;5026145;28;20430;-68
2022/11/22 06:55:20;;;;;;;148.40;48.87;;;;;;;;;;5026449;28;20509;-66
2022/11/22 06:58:07;;;;;;;137.17;49.13;;;;;;;;;;5011471;28;20441;-67
2022/11/22 07:00:33;;;;;;;144.60;48.67;;;;;;;;;;5029433;28;20480;-69
2022/11/22 07:03:02;;;;;;;143.57;47.97;;;;;;;;;;5030677;28;20469;-68
2022/11/22 07:05:29;;;;;;;140.40;48.47;;;;;;;;;;5029898;28;20836;-69
2022/11/22 07:07:55;;;;;;;159.50;49.27;;;;;;;;;;5012726;28;20543;-66
2022/11/22 07:10:32;;;;;;;160.87;50.13;;;;;;;;;;5030015;28;20801;-66
2022/11/22 07:12:58;;;;;;;148.37;49.90;;;;;;;;;;5012368;28;21013;-69
2022/11/22 07:15:25;;;;;;;156.93;51.53;;;;;;;;;;5029431;28;21333;-69
2022/11/22 07:17:52;;;;;;;150.00;50.27;;;;;;;;;;5030440;28;21578;-67
2022/11/22 07:20:18;;;;;;;152.87;49.67;;;;;;;;;;5012183;28;20456;-68
2022/11/22 07:22:46;;;;;;;176.53;52.70;;;;;;;;;;5029804;28;21401;-67
2022/11/22 07:25:13;;;;;;;184.90;54.03;;;;;;;;;;4996765;28;20874;-66
2022/11/22 07:27:40;;;;;;;174.87;51.73;;;;;;;;;;5014271;28;20430;-67
2022/11/22 07:30:07;;;;;;;169.50;53.57;;;;;;;;;;5028941;28;20450;-67
2022/11/22 07:32:33;;;;;;;171.63;52.77;;;;;;;;;;5012146;28;20450;-67
2022/11/22 07:35:00;;;;;;;179.50;55.87;;;;;;;;;;5029541;28;20433;-67
2022/11/22 07:37:29;;;;;;;158.40;51.53;;;;;;;;;;5029208;28;20461;-66
2022/11/22 07:39:56;;;;;;;165.37;53.37;;;;;;;;;;5028620;28;20438;-68
2022/11/22 07:42:23;;;;;;;174.80;53.80;;;;;;;;;;5029833;28;20798;-72
2022/11/22 07:44:52;;;;;;;180.03;54.13;;;;;;;;;;5029283;28;20442;-66
2022/11/22 07:47:19;;;;;;;159.40;52.57;;;;;;;;;;5028221;28;20462;-68
2022/11/22 07:49:48;;;;;;;155.80;52.03;;;;;;;;;;5028420;28;20499;-68
2022/11/22 07:52:33;;;;;;;154.93;51.53;;;;;;;;;;5029476;28;20429;-67
2022/11/22 07:55:00;;;;;;;176.77;50.27;;;;;;;;;;5029172;28;20533;-67
2022/11/22 07:57:44;;;;;;;168.47;49.47;;;;;;;;;;5024992;28;20792;-69
2022/11/22 08:00:12;;;;;;;163.03;49.27;;;;;;;;;;5028452;28;20949;-69
2022/11/22 08:02:39;;;;;;;161.47;47.53;;;;;;;;;;5028504;28;20563;-68
2022/11/22 08:05:06;;;;;;;142.23;44.83;;;;;;;;;;5028489;28;20449;-68
2022/11/22 08:07:33;;;;;;;147.83;45.77;;;;;;;;;;5010985;28;20509;-66
2022/11/22 08:09:59;;;;;;;149.13;46.63;;;;;;;;;;5010662;28;20441;-67
2022/11/22 08:12:26;;;;;;;147.00;47.00;;;;;;;;;;5011074;28;20461;-66
2022/11/22 08:14:53;;;;;;;146.07;47.13;;;;;;;;;;5028685;28;20516;-67
2022/11/22 08:17:20;;;;;;;145.10;45.07;;;;;;;;;;5028913;28;20522;-67
2022/11/22 08:19:52;;;;;;;149.37;46.30;;;;;;;;;;5027719;28;20994;-67
2022/11/22 08:22:19;;;;;;;156.43;48.43;;;;;;;;;;5028846;28;20445;-67
2022/11/22 08:25:03;;;;;;;151.43;46.63;;;;;;;;;;5027982;28;20434;-69
2022/11/22 08:27:29;;;;;;;143.30;44.57;;;;;;;;;;5010883;28;20515;-68
2022/11/22 08:29:56;;;;;;;154.93;47.10;;;;;;;;;;5026652;28;20478;-69
2022/11/22 08:32:23;;;;;;;139.57;43.83;;;;;;;;;;5011066;28;20961;-68
2022/11/22 08:34:49;;;;;;;163.17;45.17;;;;;;;;;;5010708;28;20430;-70
2022/11/22 08:37:16;;;;;;;161.33;47.43;;;;;;;;;;5029201;28;20949;-69
2022/11/22 08:39:43;;;;;;;156.40;44.00;;;;;;;;;;5027077;28;20480;-68
2022/11/22 08:42:09;;;;;;;138.03;46.33;;;;;;;;;;5027943;28;20465;-69
2022/11/22 08:44:36;;;;;;;147.53;46.83;;;;;;;;;;5007112;28;20539;-69
2022/11/22 08:47:03;;;;;;;129.80;44.30;;;;;;;;;;5009129;28;20463;-71
2022/11/22 08:49:29;;;;;;;137.73;46.13;;;;;;;;;;5007787;28;20542;-69
2022/11/22 08:52:14;;;;;;;150.27;45.23;;;;;;;;;;5029423;28;20406;-67
2022/11/22 08:54:41;;;;;;;143.67;44.90;;;;;;;;;;5027608;28;20501;-67
2022/11/22 08:57:25;;;;;;;135.67;43.00;;;;;;;;;;5028680;28;20422;-67
2022/11/22 08:59:51;;;;;;;133.40;44.00;;;;;;;;;;5010304;28;20443;-67
2022/11/22 09:02:18;;;;;;;122.17;42.00;;;;;;;;;;5028723;28;20444;-67
2022/11/22 09:04:45;;;;;;;103.70;38.53;;;;;;;;;;5027941;28;20430;-67
2022/11/22 09:07:11;;;;;;;110.60;38.67;;;;;;;;;;5028835;28;20821;-67
2022/11/22 09:09:56;;;;;;;115.07;41.13;;;;;;;;;;5010086;28;20417;-68
2022/11/22 09:12:23;;;;;;;108.27;39.93;;;;;;;;;;5027946;28;20434;-67
2022/11/22 09:14:50;;;;;;;108.73;39.13;;;;;;;;;;5027258;28;21153;-68
2022/11/22 09:17:17;;;;;;;100.70;37.93;;;;;;;;;;5010843;28;20439;-67
2022/11/22 09:19:43;;;;;;;102.97;37.83;;;;;;;;;;5022485;28;20460;-70
2022/11/22 09:22:30;;;;;;;104.87;36.43;;;;;;;;;;5014961;28;20913;-70
2022/11/22 09:24:57;;;;;;;90.33;34.40;;;;;;;;;;5029280;28;20970;-69
2022/11/22 09:27:41;;;;;;;92.43;34.63;;;;;;;;;;5000305;28;20437;-68
2022/11/22 09:30:08;;;;;;;92.30;34.60;;;;;;;;;;5008350;28;20492;-67
2022/11/22 09:32:38;;;;;;;89.33;33.03;;;;;;;;;;5029992;28;20457;-68
2022/11/22 09:35:05;;;;;;;82.07;32.73;;;;;;;;;;5008301;28;21190;-68
2022/11/22 09:37:31;;;;;;;90.90;31.93;;;;;;;;;;5027089;28;20447;-68
2022/11/22 09:40:18;;;;;;;88.20;32.87;;;;;;;;;;5010111;28;20453;-70
2022/11/22 09:42:48;;;;;;;85.93;31.03;;;;;;;;;;5010411;28;20788;-68
2022/11/22 09:45:21;;;;;;;81.50;31.27;;;;;;;;;;5027713;28;20446;-67
2022/11/22 09:47:48;;;;;;;90.00;31.57;;;;;;;;;;5009599;28;20450;-68
2022/11/22 09:50:32;;;;;;;69.93;29.10;;;;;;;;;;5026929;28;20460;-69
2022/11/22 09:53:08;;;;;;;79.17;29.73;;;;;;;;;;5010200;28;20453;-68
2022/11/22 09:55:54;;;;;;;70.93;27.73;;;;;;;;;;5022468;28;20462;-67
2022/11/22 09:58:38;;;;;;;69.53;27.17;;;;;;;;;;5010092;28;20426;-68
2022/11/22 10:01:16;;;;;;;70.47;28.10;;;;;;;;;;5009806;28;20617;-68
2022/11/22 10:03:44;;;;;;;75.47;28.23;;;;;;;;;;5008793;28;20499;-69
2022/11/22 10:06:33;;;;;;;71.53;28.10;;;;;;;;;;5012093;28;20941;-69
2022/11/22 10:09:04;;;;;;;71.37;28.83;;;;;;;;;;5009073;28;20442;-70
2022/11/22 10:11:50;;;;;;;70.87;27.43;;;;;;;;;;5023917;28;20426;-69
2022/11/22 10:14:29;;;;;;;71.77;28.33;;;;;;;;;;5016267;28;20522;-68
2022/11/22 10:16:56;;;;;;;67.33;26.73;;;;;;;;;;5027099;28;20464;-68
2022/11/22 10:19:26;;;;;;;68.13;27.30;;;;;;;;;;5006491;28;20567;-68
2022/11/22 10:21:53;;;;;;;74.67;28.47;;;;;;;;;;4990743;28;20443;-69
2022/11/22 10:24:37;;;;;;;66.03;27.10;;;;;;;;;;5018604;28;20430;-69
2022/11/22 10:27:08;;;;;;;68.70;27.27;;;;;;;;;;5026053;28;20486;-67
2022/11/22 10:29:41;;;;;;;71.10;27.37;;;;;;;;;;4999096;28;20462;-70
2022/11/22 10:32:14;;;;;;;71.63;27.93;;;;;;;;;;4988890;28;20772;-68
2022/11/22 10:34:48;;;;;;;69.47;26.77;;;;;;;;;;5008453;28;20548;-68
2022/11/22 10:37:24;;;;;;;62.17;25.07;;;;;;;;;;5009754;28;21171;-69
2022/11/22 10:40:09;;;;;;;58.57;24.47;;;;;;;;;;5005576;28;20525;-69
2022/11/22 10:42:55;;;;;;;51.33;20.97;;;;;;;;;;5025274;28;20446;-67
2022/11/22 10:45:27;;;;;;;57.93;24.13;;;;;;;;;;5007921;28;20545;-69
2022/11/22 10:47:56;;;;;;;63.67;25.30;;;;;;;;;;5026035;28;21036;-69
2022/11/22 10:50:23;;;;;;;70.87;27.97;;;;;;;;;;5005061;28;20439;-69
2022/11/22 10:52:56;;;;;;;74.20;29.33;;;;;;;;;;5025833;28;20946;-69
2022/11/22 10:55:29;;;;;;;77.83;27.87;;;;;;;;;;5010239;28;20462;-69
2022/11/22 10:58:12;;;;;;;74.10;28.70;;;;;;;;;;5027891;28;21060;-69
2022/11/22 11:00:40;;;;;;;78.17;27.97;;;;;;;;;;5024364;28;20516;-68
2022/11/22 11:03:06;;;;;;;75.57;30.00;;;;;;;;;;5012735;28;20503;-69
2022/11/22 11:05:33;;;;;;;65.10;24.97;;;;;;;;;;5006736;28;20447;-70
2022/11/22 11:07:59;;;;;;;56.37;23.07;;;;;;;;;;5026688;28;20473;-69
2022/11/22 11:10:46;;;;;;;60.27;24.70;;;;;;;;;;5020910;28;20438;-69
2022/11/22 11:13:20;;;;;;;65.57;26.70;;;;;;;;;;5003316;28;20426;-69
2022/11/22 11:15:47;;;;;;;67.67;25.70;;;;;;;;;;5007045;28;20465;-69
2022/11/22 11:18:26;;;;;;;60.43;24.40;;;;;;;;;;5010793;28;21046;-68
2022/11/22 11:20:52;;;;;;;72.33;25.77;;;;;;;;;;5008949;28;20438;-69
2022/11/22 11:23:19;;;;;;;64.00;24.10;;;;;;;;;;5024915;28;20443;-69
2022/11/22 11:25:46;;;;;;;61.43;24.80;;;;;;;;;;5005984;28;20449;-70
2022/11/22 11:28:19;;;;;;;57.43;23.07;;;;;;;;;;5021558;28;20484;-69
2022/11/22 11:30:55;;;;;;;58.30;22.87;;;;;;;;;;5017858;28;20522;-69
2022/11/22 11:33:24;;;;;;;56.73;22.47;;;;;;;;;;5013544;28;20437;-70
2022/11/22 11:35:54;;;;;;;60.47;24.33;;;;;;;;;;5008247;28;20466;-70
2022/11/22 11:38:26;;;;;;;56.03;22.77;;;;;;;;;;4990515;28;20436;-70
2022/11/22 11:40:53;;;;;;;59.03;24.27;;;;;;;;;;5027039;28;20948;-69
2022/11/22 11:43:20;;;;;;;60.17;24.10;;;;;;;;;;5009397;28;20524;-69
2022/11/22 11:45:47;;;;;;;56.40;24.57;;;;;;;;;;5030870;28;20924;-69
2022/11/22 11:48:40;;;;;;;58.77;23.30;;;;;;;;;;5014807;28;20637;-69
2022/11/22 11:51:10;;;;;;;60.03;22.87;;;;;;;;;;5020459;28;20449;-69
2022/11/22 11:53:37;;;;;;;52.33;22.03;;;;;;;;;;5014766;28;20869;-69
2022/11/22 11:56:20;;;;;;;63.17;23.27;;;;;;;;;;5013469;28;21190;-69
2022/11/22 11:58:50;;;;;;;53.83;21.63;;;;;;;;;;5031488;28;20458;-69
2022/11/22 12:01:18;;;;;;;56.27;22.27;;;;;;;;;;5030964;28;20529;-69
2022/11/22 12:03:52;;;;;;;53.63;24.00;;;;;;;;;;5030382;28;20449;-68
2022/11/22 12:06:19;;;;;;;48.03;18.20;;;;;;;;;;5013271;28;20551;-69
2022/11/22 12:08:45;;;;;;;52.57;22.77;;;;;;;;;;5029487;28;20434;-68
2022/11/22 12:11:13;;;;;;;52.30;21.30;;;;;;;;;;5027017;28;20446;-69
2022/11/22 12:13:59;;;;;;;61.33;24.13;;;;;;;;;;5022254;28;20437;-69
2022/11/22 12:16:46;;;;;;;46.40;20.83;;;;;;;;;;5016667;28;20489;-69
2022/11/22 12:19:42;;;;;;;59.03;23.50;;;;;;;;;;5016903;28;20426;-69
2022/11/22 12:22:09;;;;;;;56.73;24.00;;;;;;;;;;5023517;28;20446;-67
2022/11/22 12:25:14;;;;;;;56.83;23.40;;;;;;;;;;5021793;28;20449;-68
2022/11/22 12:27:59;;;;;;;60.83;24.70;;;;;;;;;;5025206;28;20951;-70
2022/11/22 12:30:26;;;;;;;60.33;24.83;;;;;;;;;;4993408;28;20465;-70
2022/11/22 12:33:02;;;;;;;58.77;25.20;;;;;;;;;;5028011;28;20442;-67
2022/11/22 12:35:28;;;;;;;53.30;22.53;;;;;;;;;;5028986;28;20433;-68
2022/11/22 12:38:01;;;;;;;59.07;23.80;;;;;;;;;;5008004;28;20523;-68
2022/11/22 12:40:41;;;;;;;51.00;22.20;;;;;;;;;;5026755;28;20434;-67
2022/11/22 12:43:13;;;;;;;57.00;24.90;;;;;;;;;;4995125;28;20961;-67
2022/11/22 12:45:41;;;;;;;52.37;21.73;;;;;;;;;;5011670;28;20433;-66
2022/11/22 12:48:21;;;;;;;62.83;22.70;;;;;;;;;;5010199;28;20803;-65
2022/11/22 12:50:49;;;;;;;63.63;24.17;;;;;;;;;;5011479;28;20488;-66
2022/11/22 12:53:23;;;;;;;70.97;28.23;;;;;;;;;;5028797;28;20446;-63
2022/11/22 12:55:51;;;;;;;59.30;24.80;;;;;;;;;;5020346;28;20476;-65
2022/11/22 12:58:23;;;;;;;60.00;26.30;;;;;;;;;;5000034;28;20502;-64
2022/11/22 13:00:55;;;;;;;62.67;26.70;;;;;;;;;;5013135;28;20441;-64
2022/11/22 13:03:54;;;;;;;61.93;26.80;;;;;;;;;;5030598;28;20399;-64
2022/11/22 13:06:22;;;;;;;73.57;28.63;;;;;;;;;;5030600;28;20449;-64
2022/11/22 13:09:00;;;;;;;58.00;25.23;;;;;;;;;;5012801;28;20430;-64
2022/11/22 13:11:31;;;;;;;55.30;23.97;;;;;;;;;;5013418;28;20460;-65
2022/11/22 13:14:03;;;;;;;54.10;23.23;;;;;;;;;;5030506;28;20504;-64
2022/11/22 13:16:30;;;;;;;51.87;22.77;;;;;;;;;;5028688;28;20442;-65
2022/11/22 13:19:01;;;;;;;55.30;24.63;;;;;;;;;;5030774;28;20422;-64
2022/11/22 13:21:28;;;;;;;51.90;23.87;;;;;;;;;;5012816;28;20447;-64
2022/11/22 13:23:58;;;;;;;56.70;23.70;;;;;;;;;;5030339;28;20426;-64
2022/11/22 13:26:43;;;;;;;55.27;23.93;;;;;;;;;;5012021;28;20458;-64
2022/11/22 13:29:28;;;;;;;55.57;24.00;;;;;;;;;;5030084;28;20480;-64
2022/11/22 13:32:10;;;;;;;53.53;23.30;;;;;;;;;;5011981;28;20533;-64
2022/11/22 13:34:41;;;;;;;56.03;24.47;;;;;;;;;;5029927;28;20438;-64
2022/11/22 13:37:12;;;;;;;59.30;24.97;;;;;;;;;;5030327;28;20428;-64
2022/11/22 13:39:56;;;;;;;58.60;23.27;;;;;;;;;;5029814;28;20763;-64
2022/11/22 13:42:24;;;;;;;63.33;25.83;;;;;;;;;;5012198;28;20563;-64
2022/11/22 13:44:51;;;;;;;56.77;24.03;;;;;;;;;;5012697;28;20487;-64
2022/11/22 13:47:37;;;;;;;56.97;25.03;;;;;;;;;;5029798;28;20555;-65
2022/11/22 13:50:22;;;;;;;57.07;24.30;;;;;;;;;;5029535;28;20452;-64
2022/11/22 13:52:50;;;;;;;61.20;25.13;;;;;;;;;;5029166;28;20936;-64
2022/11/22 13:55:27;;;;;;;62.17;27.23;;;;;;;;;;5029713;28;20534;-65
2022/11/22 13:57:54;;;;;;;59.97;27.60;;;;;;;;;;5030148;28;20496;-64
2022/11/22 14:00:20;;;;;;;68.40;27.87;;;;;;;;;;5029755;28;20438;-65
2022/11/22 14:02:51;;;;;;;69.23;29.47;;;;;;;;;;5029698;28;20439;-65
2022/11/22 14:05:25;;;;;;;68.53;27.57;;;;;;;;;;5011496;28;20504;-65
2022/11/22 14:07:52;;;;;;;71.37;26.57;;;;;;;;;;5029635;28;20532;-64
2022/11/22 14:10:24;;;;;;;66.53;27.10;;;;;;;;;;5029154;28;20456;-65
2022/11/22 14:12:54;;;;;;;64.03;27.20;;;;;;;;;;5011091;28;20447;-64
2022/11/22 14:15:27;;;;;;;79.93;28.50;;;;;;;;;;5029705;28;20514;-64
2022/11/22 14:18:03;;;;;;;71.23;29.97;;;;;;;;;;5012143;28;20434;-64
2022/11/22 14:20:47;;;;;;;76.83;29.37;;;;;;;;;;5028081;28;20446;-64
2022/11/22 14:23:28;;;;;;;66.97;27.97;;;;;;;;;;5011290;28;20442;-65
2022/11/22 14:26:00;;;;;;;75.17;29.50;;;;;;;;;;5031662;28;20528;-64
2022/11/22 14:28:30;;;;;;;64.33;27.97;;;;;;;;;;5029168;28;20842;-64
2022/11/22 14:30:56;;;;;;;68.53;28.17;;;;;;;;;;5027785;28;20442;-64
2022/11/22 14:33:24;;;;;;;54.60;24.17;;;;;;;;;;5028260;28;20445;-64
2022/11/22 14:36:06;;;;;;;52.03;23.77;;;;;;;;;;5028734;28;20829;-65
2022/11/22 14:38:37;;;;;;;66.20;26.77;;;;;;;;;;5016333;28;20443;-64
2022/11/22 14:41:22;;;;;;;65.93;27.37;;;;;;;;;;5028430;28;20854;-64
2022/11/22 14:43:50;;;;;;;58.20;25.27;;;;;;;;;;5027902;28;20438;-64
2022/11/22 14:46:17;;;;;;;67.27;27.70;;;;;;;;;;5027695;28;20496;-65
2022/11/22 14:49:18;;;;;;;65.93;25.70;;;;;;;;;;5023222;28;20450;-64
2022/11/22 14:52:03;;;;;;;60.13;25.03;;;;;;;;;;5000314;28;21263;-64